sensor_id;sensor_type;location;lat;lon;timestamp;P1;durP1;ratioP1;P2;durP2;ratioP2
62610;SDS011;48683;48.084;17.272;2024-02-15T00:01:38;23.40;;;17.65;;
62610;SDS011;48683;48.084;17.272;2024-02-15T00:04:04;23.30;;;17.38;;
62610;SDS011;48683;48.084;17.272;2024-02-15T00:06:29;29.83;;;20.55;;
62610;SDS011;48683;48.084;17.272;2024-02-15T00:08:54;30.90;;;19.13;;
62610;SDS011;48683;48.084;17.272;2024-02-15T00:11:19;28.70;;;18.67;;
62610;SDS011;48683;48.084;17.272;2024-02-15T00:13:45;31.93;;;21.63;;
62610;SDS011;48683;48.084;17.272;2024-02-15T00:16:14;27.10;;;19.60;;
62610;SDS011;48683;48.084;17.272;2024-02-15T00:18:39;30.20;;;21.02;;
62610;SDS011;48683;48.084;17.272;2024-02-15T00:21:05;32.03;;;21.07;;
62610;SDS011;48683;48.084;17.272;2024-02-15T00:23:30;31.00;;;20.20;;
62610;SDS011;48683;48.084;17.272;2024-02-15T00:25:55;35.90;;;21.85;;
62610;SDS011;48683;48.084;17.272;2024-02-15T00:28:20;35.60;;;21.43;;
62610;SDS011;48683;48.084;17.272;2024-02-15T00:30:46;38.85;;;22.55;;
62610;SDS011;48683;48.084;17.272;2024-02-15T00:33:11;30.77;;;21.13;;
62610;SDS011;48683;48.084;17.272;2024-02-15T00:35:36;30.50;;;20.77;;
62610;SDS011;48683;48.084;17.272;2024-02-15T00:38:01;29.17;;;19.42;;
62610;SDS011;48683;48.084;17.272;2024-02-15T00:40:27;30.27;;;20.88;;
62610;SDS011;48683;48.084;17.272;2024-02-15T00:42:52;27.17;;;17.90;;
62610;SDS011;48683;48.084;17.272;2024-02-15T00:45:18;26.03;;;18.57;;
62610;SDS011;48683;48.084;17.272;2024-02-15T00:47:43;25.58;;;18.30;;
62610;SDS011;48683;48.084;17.272;2024-02-15T00:50:08;29.42;;;19.27;;
62610;SDS011;48683;48.084;17.272;2024-02-15T00:52:34;25.48;;;17.23;;
62610;SDS011;48683;48.084;17.272;2024-02-15T00:54:59;24.47;;;17.27;;
62610;SDS011;48683;48.084;17.272;2024-02-15T00:57:25;26.75;;;16.92;;
62610;SDS011;48683;48.084;17.272;2024-02-15T00:59:50;27.03;;;18.90;;
62610;SDS011;48683;48.084;17.272;2024-02-15T01:02:16;28.02;;;18.95;;
62610;SDS011;48683;48.084;17.272;2024-02-15T01:04:42;23.70;;;16.88;;
62610;SDS011;48683;48.084;17.272;2024-02-15T01:07:10;22.10;;;16.70;;
62610;SDS011;48683;48.084;17.272;2024-02-15T01:09:35;24.43;;;17.10;;
62610;SDS011;48683;48.084;17.272;2024-02-15T01:12:00;27.83;;;19.52;;
62610;SDS011;48683;48.084;17.272;2024-02-15T01:14:26;26.50;;;18.60;;
62610;SDS011;48683;48.084;17.272;2024-02-15T01:16:55;27.75;;;17.98;;
62610;SDS011;48683;48.084;17.272;2024-02-15T01:19:20;22.87;;;17.37;;
62610;SDS011;48683;48.084;17.272;2024-02-15T01:21:45;24.17;;;18.03;;
62610;SDS011;48683;48.084;17.272;2024-02-15T01:24:11;28.58;;;19.48;;
62610;SDS011;48683;48.084;17.272;2024-02-15T01:26:36;27.23;;;19.10;;
62610;SDS011;48683;48.084;17.272;2024-02-15T01:29:02;24.75;;;17.58;;
62610;SDS011;48683;48.084;17.272;2024-02-15T01:31:28;25.58;;;17.85;;
62610;SDS011;48683;48.084;17.272;2024-02-15T01:33:53;27.97;;;19.37;;
62610;SDS011;48683;48.084;17.272;2024-02-15T01:36:18;26.50;;;17.97;;
62610;SDS011;48683;48.084;17.272;2024-02-15T01:38:44;31.83;;;21.52;;
62610;SDS011;48683;48.084;17.272;2024-02-15T01:41:10;30.23;;;20.50;;
62610;SDS011;48683;48.084;17.272;2024-02-15T01:43:35;28.23;;;19.35;;
62610;SDS011;48683;48.084;17.272;2024-02-15T01:46:01;30.73;;;20.20;;
62610;SDS011;48683;48.084;17.272;2024-02-15T01:48:32;26.90;;;18.17;;
62610;SDS011;48683;48.084;17.272;2024-02-15T01:50:57;24.30;;;18.83;;
62610;SDS011;48683;48.084;17.272;2024-02-15T01:53:23;27.08;;;19.20;;
62610;SDS011;48683;48.084;17.272;2024-02-15T01:55:48;25.95;;;19.80;;
62610;SDS011;48683;48.084;17.272;2024-02-15T01:58:14;26.17;;;19.00;;
62610;SDS011;48683;48.084;17.272;2024-02-15T02:00:40;34.63;;;22.25;;
62610;SDS011;48683;48.084;17.272;2024-02-15T02:03:05;27.23;;;20.47;;
62610;SDS011;48683;48.084;17.272;2024-02-15T02:05:30;30.05;;;20.65;;
62610;SDS011;48683;48.084;17.272;2024-02-15T02:07:56;31.55;;;20.88;;
62610;SDS011;48683;48.084;17.272;2024-02-15T02:10:24;25.83;;;18.33;;
62610;SDS011;48683;48.084;17.272;2024-02-15T02:12:50;30.63;;;19.70;;
62610;SDS011;48683;48.084;17.272;2024-02-15T02:15:15;28.65;;;19.92;;
62610;SDS011;48683;48.084;17.272;2024-02-15T02:17:40;32.73;;;21.37;;
62610;SDS011;48683;48.084;17.272;2024-02-15T02:20:06;28.00;;;18.92;;
62610;SDS011;48683;48.084;17.272;2024-02-15T02:22:33;27.58;;;19.65;;
62610;SDS011;48683;48.084;17.272;2024-02-15T02:27:25;26.37;;;20.20;;
62610;SDS011;48683;48.084;17.272;2024-02-15T02:29:51;31.27;;;21.33;;
62610;SDS011;48683;48.084;17.272;2024-02-15T02:32:16;28.27;;;19.93;;
62610;SDS011;48683;48.084;17.272;2024-02-15T02:34:41;34.93;;;21.23;;
62610;SDS011;48683;48.084;17.272;2024-02-15T02:37:07;28.77;;;19.47;;
62610;SDS011;48683;48.084;17.272;2024-02-15T02:39:33;29.00;;;19.90;;
62610;SDS011;48683;48.084;17.272;2024-02-15T02:41:58;29.60;;;19.17;;
62610;SDS011;48683;48.084;17.272;2024-02-15T02:44:23;32.57;;;20.43;;
62610;SDS011;48683;48.084;17.272;2024-02-15T02:46:48;30.53;;;22.00;;
62610;SDS011;48683;48.084;17.272;2024-02-15T02:49:14;25.23;;;18.30;;
62610;SDS011;48683;48.084;17.272;2024-02-15T02:51:39;31.10;;;20.87;;
62610;SDS011;48683;48.084;17.272;2024-02-15T02:54:04;34.90;;;21.35;;
62610;SDS011;48683;48.084;17.272;2024-02-15T02:56:31;31.77;;;22.67;;
62610;SDS011;48683;48.084;17.272;2024-02-15T02:58:56;30.45;;;20.77;;
62610;SDS011;48683;48.084;17.272;2024-02-15T03:01:22;36.00;;;21.33;;
62610;SDS011;48683;48.084;17.272;2024-02-15T03:03:49;27.23;;;20.02;;
62610;SDS011;48683;48.084;17.272;2024-02-15T03:06:15;30.27;;;21.23;;
62610;SDS011;48683;48.084;17.272;2024-02-15T03:08:40;37.07;;;21.03;;
62610;SDS011;48683;48.084;17.272;2024-02-15T03:11:05;30.33;;;22.43;;
62610;SDS011;48683;48.084;17.272;2024-02-15T03:13:30;29.10;;;19.93;;
62610;SDS011;48683;48.084;17.272;2024-02-15T03:15:55;29.87;;;21.47;;
62610;SDS011;48683;48.084;17.272;2024-02-15T03:18:21;27.93;;;20.53;;
62610;SDS011;48683;48.084;17.272;2024-02-15T03:20:48;26.90;;;19.70;;
62610;SDS011;48683;48.084;17.272;2024-02-15T03:23:14;26.05;;;19.05;;
62610;SDS011;48683;48.084;17.272;2024-02-15T03:25:39;28.57;;;18.87;;
62610;SDS011;48683;48.084;17.272;2024-02-15T03:28:04;31.63;;;20.50;;
62610;SDS011;48683;48.084;17.272;2024-02-15T03:30:30;29.83;;;20.42;;
62610;SDS011;48683;48.084;17.272;2024-02-15T03:32:56;26.08;;;18.80;;
62610;SDS011;48683;48.084;17.272;2024-02-15T03:35:22;26.42;;;19.15;;
62610;SDS011;48683;48.084;17.272;2024-02-15T03:37:48;28.00;;;20.20;;
62610;SDS011;48683;48.084;17.272;2024-02-15T03:40:16;25.65;;;17.92;;
62610;SDS011;48683;48.084;17.272;2024-02-15T03:42:41;28.05;;;18.92;;
62610;SDS011;48683;48.084;17.272;2024-02-15T03:45:06;31.52;;;18.55;;
62610;SDS011;48683;48.084;17.272;2024-02-15T03:47:32;25.77;;;19.92;;
62610;SDS011;48683;48.084;17.272;2024-02-15T03:49:58;30.03;;;21.07;;
62610;SDS011;48683;48.084;17.272;2024-02-15T03:52:23;31.02;;;19.45;;
62610;SDS011;48683;48.084;17.272;2024-02-15T03:54:48;29.83;;;18.93;;
62610;SDS011;48683;48.084;17.272;2024-02-15T03:57:14;30.88;;;19.77;;
62610;SDS011;48683;48.084;17.272;2024-02-15T03:59:41;25.17;;;19.48;;
62610;SDS011;48683;48.084;17.272;2024-02-15T04:02:06;29.03;;;19.77;;
62610;SDS011;48683;48.084;17.272;2024-02-15T04:04:37;29.02;;;18.58;;
62610;SDS011;48683;48.084;17.272;2024-02-15T04:07:02;31.38;;;21.33;;
62610;SDS011;48683;48.084;17.272;2024-02-15T04:09:28;25.27;;;19.25;;
62610;SDS011;48683;48.084;17.272;2024-02-15T04:11:53;29.20;;;21.17;;
62610;SDS011;48683;48.084;17.272;2024-02-15T04:14:19;33.53;;;21.48;;
62610;SDS011;48683;48.084;17.272;2024-02-15T04:16:44;26.40;;;20.20;;
62610;SDS011;48683;48.084;17.272;2024-02-15T04:19:10;29.80;;;20.45;;
62610;SDS011;48683;48.084;17.272;2024-02-15T04:21:35;26.23;;;19.25;;
62610;SDS011;48683;48.084;17.272;2024-02-15T04:24:00;25.70;;;18.73;;
62610;SDS011;48683;48.084;17.272;2024-02-15T04:26:26;26.77;;;19.45;;
62610;SDS011;48683;48.084;17.272;2024-02-15T04:28:52;29.40;;;19.70;;
62610;SDS011;48683;48.084;17.272;2024-02-15T04:31:18;25.15;;;19.17;;
62610;SDS011;48683;48.084;17.272;2024-02-15T04:33:43;28.65;;;20.15;;
62610;SDS011;48683;48.084;17.272;2024-02-15T04:36:08;26.70;;;18.90;;
62610;SDS011;48683;48.084;17.272;2024-02-15T04:38:33;27.13;;;19.98;;
62610;SDS011;48683;48.084;17.272;2024-02-15T04:41:02;29.27;;;19.67;;
62610;SDS011;48683;48.084;17.272;2024-02-15T04:43:30;27.65;;;19.83;;
62610;SDS011;48683;48.084;17.272;2024-02-15T04:45:56;28.17;;;20.30;;
62610;SDS011;48683;48.084;17.272;2024-02-15T04:48:21;28.60;;;20.20;;
62610;SDS011;48683;48.084;17.272;2024-02-15T04:50:48;27.58;;;18.90;;
62610;SDS011;48683;48.084;17.272;2024-02-15T04:53:14;29.42;;;20.50;;
62610;SDS011;48683;48.084;17.272;2024-02-15T04:55:39;26.33;;;18.73;;
62610;SDS011;48683;48.084;17.272;2024-02-15T04:58:04;24.67;;;18.27;;
62610;SDS011;48683;48.084;17.272;2024-02-15T05:00:30;27.80;;;18.33;;
62610;SDS011;48683;48.084;17.272;2024-02-15T05:02:55;28.10;;;20.13;;
62610;SDS011;48683;48.084;17.272;2024-02-15T05:05:21;30.07;;;20.93;;
62610;SDS011;48683;48.084;17.272;2024-02-15T05:07:47;31.13;;;21.20;;
62610;SDS011;48683;48.084;17.272;2024-02-15T05:10:14;30.30;;;21.95;;
62610;SDS011;48683;48.084;17.272;2024-02-15T05:12:40;30.50;;;21.15;;
62610;SDS011;48683;48.084;17.272;2024-02-15T05:15:05;36.67;;;22.47;;
62610;SDS011;48683;48.084;17.272;2024-02-15T05:17:35;33.67;;;21.95;;
62610;SDS011;48683;48.084;17.272;2024-02-15T05:20:00;33.92;;;21.58;;
62610;SDS011;48683;48.084;17.272;2024-02-15T05:22:25;33.10;;;22.90;;
62610;SDS011;48683;48.084;17.272;2024-02-15T05:24:53;33.95;;;21.80;;
62610;SDS011;48683;48.084;17.272;2024-02-15T05:27:19;30.92;;;22.63;;
62610;SDS011;48683;48.084;17.272;2024-02-15T05:29:44;27.55;;;19.25;;
62610;SDS011;48683;48.084;17.272;2024-02-15T05:32:10;34.95;;;25.88;;
62610;SDS011;48683;48.084;17.272;2024-02-15T05:34:36;34.80;;;23.15;;
62610;SDS011;48683;48.084;17.272;2024-02-15T05:37:04;34.63;;;24.40;;
62610;SDS011;48683;48.084;17.272;2024-02-15T05:39:31;35.42;;;22.90;;
62610;SDS011;48683;48.084;17.272;2024-02-15T05:41:56;31.27;;;22.17;;
62610;SDS011;48683;48.084;17.272;2024-02-15T05:44:25;31.25;;;21.45;;
62610;SDS011;48683;48.084;17.272;2024-02-15T05:46:50;27.60;;;20.63;;
62610;SDS011;48683;48.084;17.272;2024-02-15T05:49:15;33.37;;;22.60;;
62610;SDS011;48683;48.084;17.272;2024-02-15T05:51:42;27.30;;;19.08;;
62610;SDS011;48683;48.084;17.272;2024-02-15T05:54:07;25.65;;;18.95;;
62610;SDS011;48683;48.084;17.272;2024-02-15T05:56:32;28.97;;;20.97;;
62610;SDS011;48683;48.084;17.272;2024-02-15T05:58:58;27.87;;;20.40;;
62610;SDS011;48683;48.084;17.272;2024-02-15T06:01:23;26.90;;;20.20;;
62610;SDS011;48683;48.084;17.272;2024-02-15T06:03:49;31.13;;;21.58;;
62610;SDS011;48683;48.084;17.272;2024-02-15T06:06:14;31.02;;;21.02;;
62610;SDS011;48683;48.084;17.272;2024-02-15T06:08:39;30.50;;;20.88;;
62610;SDS011;48683;48.084;17.272;2024-02-15T06:11:04;30.93;;;22.07;;
62610;SDS011;48683;48.084;17.272;2024-02-15T06:13:34;30.02;;;21.58;;
62610;SDS011;48683;48.084;17.272;2024-02-15T06:16:00;29.13;;;21.67;;
62610;SDS011;48683;48.084;17.272;2024-02-15T06:18:27;30.27;;;22.10;;
62610;SDS011;48683;48.084;17.272;2024-02-15T06:20:54;30.90;;;21.67;;
62610;SDS011;48683;48.084;17.272;2024-02-15T06:23:22;34.42;;;22.48;;
62610;SDS011;48683;48.084;17.272;2024-02-15T06:25:47;27.27;;;19.00;;
62610;SDS011;48683;48.084;17.272;2024-02-15T06:28:12;37.60;;;23.03;;
62610;SDS011;48683;48.084;17.272;2024-02-15T06:30:44;30.00;;;21.65;;
62610;SDS011;48683;48.084;17.272;2024-02-15T06:33:27;30.17;;;20.95;;
62610;SDS011;48683;48.084;17.272;2024-02-15T06:36:11;29.52;;;22.08;;
62610;SDS011;48683;48.084;17.272;2024-02-15T06:38:55;35.17;;;23.20;;
62610;SDS011;48683;48.084;17.272;2024-02-15T06:41:39;29.83;;;21.63;;
62610;SDS011;48683;48.084;17.272;2024-02-15T06:44:05;33.13;;;22.15;;
62610;SDS011;48683;48.084;17.272;2024-02-15T06:46:30;36.10;;;24.57;;
62610;SDS011;48683;48.084;17.272;2024-02-15T06:48:55;37.13;;;23.37;;
62610;SDS011;48683;48.084;17.272;2024-02-15T06:53:49;30.90;;;22.40;;
62610;SDS011;48683;48.084;17.272;2024-02-15T06:56:15;34.65;;;21.73;;
62610;SDS011;48683;48.084;17.272;2024-02-15T06:58:40;37.13;;;24.13;;
62610;SDS011;48683;48.084;17.272;2024-02-15T07:01:06;33.08;;;22.58;;
62610;SDS011;48683;48.084;17.272;2024-02-15T07:03:32;28.00;;;21.02;;
62610;SDS011;48683;48.084;17.272;2024-02-15T07:05:57;34.13;;;22.50;;
62610;SDS011;48683;48.084;17.272;2024-02-15T07:08:23;29.87;;;21.77;;
62610;SDS011;48683;48.084;17.272;2024-02-15T07:10:50;31.27;;;23.55;;
62610;SDS011;48683;48.084;17.272;2024-02-15T07:13:16;37.42;;;24.10;;
62610;SDS011;48683;48.084;17.272;2024-02-15T07:15:42;35.08;;;23.50;;
62610;SDS011;48683;48.084;17.272;2024-02-15T07:18:07;42.93;;;27.27;;
62610;SDS011;48683;48.084;17.272;2024-02-15T07:20:33;36.13;;;25.00;;
62610;SDS011;48683;48.084;17.272;2024-02-15T07:22:58;35.60;;;25.05;;
62610;SDS011;48683;48.084;17.272;2024-02-15T07:25:23;34.28;;;23.60;;
62610;SDS011;48683;48.084;17.272;2024-02-15T07:27:48;33.13;;;23.67;;
62610;SDS011;48683;48.084;17.272;2024-02-15T07:30:14;30.83;;;23.43;;
62610;SDS011;48683;48.084;17.272;2024-02-15T07:32:39;33.17;;;22.38;;
62610;SDS011;48683;48.084;17.272;2024-02-15T07:35:05;32.83;;;22.65;;
62610;SDS011;48683;48.084;17.272;2024-02-15T07:37:33;28.17;;;21.35;;
62610;SDS011;48683;48.084;17.272;2024-02-15T07:39:58;34.80;;;24.00;;
62610;SDS011;48683;48.084;17.272;2024-02-15T07:42:24;34.70;;;22.92;;
62610;SDS011;48683;48.084;17.272;2024-02-15T07:44:50;30.95;;;22.10;;
62610;SDS011;48683;48.084;17.272;2024-02-15T07:47:15;31.90;;;20.50;;
62610;SDS011;48683;48.084;17.272;2024-02-15T07:49:45;29.50;;;22.08;;
62610;SDS011;48683;48.084;17.272;2024-02-15T07:52:10;31.37;;;21.40;;
62610;SDS011;48683;48.084;17.272;2024-02-15T07:54:35;23.53;;;18.90;;
62610;SDS011;48683;48.084;17.272;2024-02-15T07:57:00;29.67;;;20.67;;
62610;SDS011;48683;48.084;17.272;2024-02-15T07:59:25;26.90;;;21.37;;
62610;SDS011;48683;48.084;17.272;2024-02-15T08:01:51;31.23;;;21.00;;
62610;SDS011;48683;48.084;17.272;2024-02-15T08:04:16;26.33;;;21.23;;
62610;SDS011;48683;48.084;17.272;2024-02-15T08:06:42;32.60;;;22.20;;
62610;SDS011;48683;48.084;17.272;2024-02-15T08:09:08;28.50;;;20.93;;
62610;SDS011;48683;48.084;17.272;2024-02-15T08:11:38;32.85;;;21.88;;
62610;SDS011;48683;48.084;17.272;2024-02-15T08:14:05;30.88;;;21.85;;
62610;SDS011;48683;48.084;17.272;2024-02-15T08:16:33;29.55;;;21.98;;
62610;SDS011;48683;48.084;17.272;2024-02-15T08:18:59;31.23;;;22.27;;
62610;SDS011;48683;48.084;17.272;2024-02-15T08:21:28;32.75;;;21.85;;
62610;SDS011;48683;48.084;17.272;2024-02-15T08:23:54;30.58;;;22.05;;
62610;SDS011;48683;48.084;17.272;2024-02-15T08:26:20;35.20;;;23.85;;
62610;SDS011;48683;48.084;17.272;2024-02-15T08:28:45;33.87;;;22.57;;
62610;SDS011;48683;48.084;17.272;2024-02-15T08:31:10;37.07;;;24.73;;
62610;SDS011;48683;48.084;17.272;2024-02-15T08:33:39;38.80;;;24.92;;
62610;SDS011;48683;48.084;17.272;2024-02-15T08:36:05;35.57;;;22.87;;
62610;SDS011;48683;48.084;17.272;2024-02-15T08:38:30;31.58;;;21.65;;
62610;SDS011;48683;48.084;17.272;2024-02-15T08:40:55;31.53;;;22.53;;
62610;SDS011;48683;48.084;17.272;2024-02-15T08:43:20;27.47;;;22.37;;
62610;SDS011;48683;48.084;17.272;2024-02-15T08:45:46;30.10;;;20.63;;
62610;SDS011;48683;48.084;17.272;2024-02-15T08:48:11;30.77;;;22.47;;
62610;SDS011;48683;48.084;17.272;2024-02-15T08:50:36;27.15;;;20.35;;
62610;SDS011;48683;48.084;17.272;2024-02-15T08:53:01;30.55;;;21.42;;
62610;SDS011;48683;48.084;17.272;2024-02-15T08:55:31;27.48;;;19.75;;
62610;SDS011;48683;48.084;17.272;2024-02-15T08:57:56;27.50;;;20.75;;
62610;SDS011;48683;48.084;17.272;2024-02-15T09:00:21;30.20;;;21.70;;
62610;SDS011;48683;48.084;17.272;2024-02-15T09:02:47;30.60;;;21.77;;
62610;SDS011;48683;48.084;17.272;2024-02-15T09:05:12;31.88;;;22.02;;
62610;SDS011;48683;48.084;17.272;2024-02-15T09:07:39;34.15;;;22.30;;
62610;SDS011;48683;48.084;17.272;2024-02-15T09:12:32;32.72;;;22.50;;
62610;SDS011;48683;48.084;17.272;2024-02-15T09:14:57;29.55;;;21.73;;
62610;SDS011;48683;48.084;17.272;2024-02-15T09:17:23;32.90;;;23.10;;
62610;SDS011;48683;48.084;17.272;2024-02-15T09:19:48;29.90;;;22.58;;
62610;SDS011;48683;48.084;17.272;2024-02-15T09:22:16;29.02;;;20.88;;
62610;SDS011;48683;48.084;17.272;2024-02-15T09:24:41;31.58;;;21.63;;
62610;SDS011;48683;48.084;17.272;2024-02-15T09:27:07;29.33;;;21.42;;
62610;SDS011;48683;48.084;17.272;2024-02-15T09:29:32;35.25;;;21.60;;
62610;SDS011;48683;48.084;17.272;2024-02-15T09:31:58;31.80;;;23.37;;
62610;SDS011;48683;48.084;17.272;2024-02-15T09:34:23;31.75;;;22.30;;
62610;SDS011;48683;48.084;17.272;2024-02-15T09:36:48;29.88;;;21.42;;
62610;SDS011;48683;48.084;17.272;2024-02-15T09:39:13;31.50;;;21.57;;
62610;SDS011;48683;48.084;17.272;2024-02-15T09:41:39;28.42;;;21.23;;
62610;SDS011;48683;48.084;17.272;2024-02-15T09:44:04;27.35;;;21.35;;
62610;SDS011;48683;48.084;17.272;2024-02-15T09:46:30;30.93;;;21.23;;
62610;SDS011;48683;48.084;17.272;2024-02-15T09:48:57;27.10;;;20.00;;
62610;SDS011;48683;48.084;17.272;2024-02-15T09:51:23;29.70;;;21.55;;
62610;SDS011;48683;48.084;17.272;2024-02-15T09:53:49;34.85;;;22.95;;
62610;SDS011;48683;48.084;17.272;2024-02-15T09:56:15;36.47;;;25.10;;
62610;SDS011;48683;48.084;17.272;2024-02-15T09:58:40;33.23;;;22.33;;
62610;SDS011;48683;48.084;17.272;2024-02-15T10:01:05;31.52;;;22.90;;
62610;SDS011;48683;48.084;17.272;2024-02-15T10:03:34;32.78;;;23.98;;
62610;SDS011;48683;48.084;17.272;2024-02-15T10:05:59;31.85;;;22.80;;
62610;SDS011;48683;48.084;17.272;2024-02-15T10:08:25;30.53;;;22.47;;
62610;SDS011;48683;48.084;17.272;2024-02-15T10:11:08;29.50;;;22.88;;
62610;SDS011;48683;48.084;17.272;2024-02-15T10:13:34;30.83;;;23.13;;
62610;SDS011;48683;48.084;17.272;2024-02-15T10:15:59;32.10;;;22.35;;
62610;SDS011;48683;48.084;17.272;2024-02-15T10:18:38;30.75;;;22.17;;
62610;SDS011;48683;48.084;17.272;2024-02-15T10:21:04;31.88;;;21.92;;
62610;SDS011;48683;48.084;17.272;2024-02-15T10:23:29;28.80;;;22.63;;
62610;SDS011;48683;48.084;17.272;2024-02-15T10:25:54;28.87;;;21.17;;
62610;SDS011;48683;48.084;17.272;2024-02-15T10:28:21;29.25;;;22.65;;
62610;SDS011;48683;48.084;17.272;2024-02-15T10:30:48;29.25;;;21.85;;
62610;SDS011;48683;48.084;17.272;2024-02-15T10:33:27;28.38;;;21.75;;
62610;SDS011;48683;48.084;17.272;2024-02-15T10:36:08;27.92;;;20.98;;
62610;SDS011;48683;48.084;17.272;2024-02-15T10:38:33;28.15;;;21.08;;
62610;SDS011;48683;48.084;17.272;2024-02-15T10:41:06;30.92;;;21.83;;
62610;SDS011;48683;48.084;17.272;2024-02-15T10:43:32;30.38;;;21.63;;
62610;SDS011;48683;48.084;17.272;2024-02-15T10:45:59;30.38;;;21.65;;
62610;SDS011;48683;48.084;17.272;2024-02-15T10:48:25;26.33;;;20.23;;
62610;SDS011;48683;48.084;17.272;2024-02-15T10:50:52;30.88;;;21.73;;
62610;SDS011;48683;48.084;17.272;2024-02-15T10:53:26;29.73;;;20.92;;
62610;SDS011;48683;48.084;17.272;2024-02-15T10:58:21;29.13;;;21.17;;
62610;SDS011;48683;48.084;17.272;2024-02-15T11:00:49;30.55;;;22.55;;
62610;SDS011;48683;48.084;17.272;2024-02-15T11:03:17;30.98;;;22.15;;
62610;SDS011;48683;48.084;17.272;2024-02-15T11:05:45;27.58;;;21.08;;
62610;SDS011;48683;48.084;17.272;2024-02-15T11:08:11;34.72;;;22.75;;
62610;SDS011;48683;48.084;17.272;2024-02-15T11:10:36;28.40;;;20.35;;
62610;SDS011;48683;48.084;17.272;2024-02-15T11:13:02;26.33;;;19.27;;
62610;SDS011;48683;48.084;17.272;2024-02-15T11:18:06;27.25;;;18.73;;
62610;SDS011;48683;48.084;17.272;2024-02-15T11:23:04;21.17;;;17.35;;
62610;SDS011;48683;48.084;17.272;2024-02-15T11:25:36;21.85;;;17.42;;
62610;SDS011;48683;48.084;17.272;2024-02-15T11:29:02;24.55;;;17.63;;
62610;SDS011;48683;48.084;17.272;2024-02-15T11:30:56;20.70;;;16.63;;
62610;SDS011;48683;48.084;17.272;2024-02-15T11:33:31;24.73;;;16.80;;
62610;SDS011;48683;48.084;17.272;2024-02-15T11:36:06;24.38;;;17.45;;
62610;SDS011;48683;48.084;17.272;2024-02-15T11:38:35;20.85;;;16.35;;
62610;SDS011;48683;48.084;17.272;2024-02-15T11:41:01;20.27;;;15.70;;
62610;SDS011;48683;48.084;17.272;2024-02-15T11:46:17;20.67;;;16.35;;
62610;SDS011;48683;48.084;17.272;2024-02-15T11:48:46;19.17;;;15.85;;
62610;SDS011;48683;48.084;17.272;2024-02-15T11:51:24;19.20;;;14.68;;
62610;SDS011;48683;48.084;17.272;2024-02-15T11:54:02;18.92;;;14.77;;
62610;SDS011;48683;48.084;17.272;2024-02-15T11:56:30;21.88;;;15.63;;
62610;SDS011;48683;48.084;17.272;2024-02-15T11:59:01;19.08;;;15.52;;
62610;SDS011;48683;48.084;17.272;2024-02-15T12:01:27;20.98;;;15.25;;
62610;SDS011;48683;48.084;17.272;2024-02-15T12:04:12;19.08;;;15.27;;
62610;SDS011;48683;48.084;17.272;2024-02-15T12:06:59;17.92;;;15.45;;
62610;SDS011;48683;48.084;17.272;2024-02-15T12:09:43;20.70;;;15.68;;
62610;SDS011;48683;48.084;17.272;2024-02-15T12:12:26;18.08;;;15.00;;
62610;SDS011;48683;48.084;17.272;2024-02-15T12:15:11;23.85;;;16.45;;
62610;SDS011;48683;48.084;17.272;2024-02-15T12:17:54;19.33;;;15.05;;
62610;SDS011;48683;48.084;17.272;2024-02-15T12:20:39;21.88;;;16.55;;
62610;SDS011;48683;48.084;17.272;2024-02-15T12:23:04;21.02;;;15.95;;
62610;SDS011;48683;48.084;17.272;2024-02-15T12:25:31;22.33;;;17.17;;
62610;SDS011;48683;48.084;17.272;2024-02-15T12:27:58;20.48;;;16.52;;
62610;SDS011;48683;48.084;17.272;2024-02-15T12:30:24;20.27;;;16.55;;
62610;SDS011;48683;48.084;17.272;2024-02-15T12:32:50;19.17;;;16.47;;
62610;SDS011;48683;48.084;17.272;2024-02-15T12:35:19;19.98;;;15.90;;
62610;SDS011;48683;48.084;17.272;2024-02-15T12:37:48;19.70;;;15.95;;
62610;SDS011;48683;48.084;17.272;2024-02-15T12:40:19;22.05;;;16.67;;
62610;SDS011;48683;48.084;17.272;2024-02-15T12:42:47;21.48;;;16.10;;
62610;SDS011;48683;48.084;17.272;2024-02-15T12:45:16;22.23;;;17.08;;
62610;SDS011;48683;48.084;17.272;2024-02-15T12:47:44;21.15;;;16.13;;
62610;SDS011;48683;48.084;17.272;2024-02-15T12:50:19;24.27;;;17.92;;
62610;SDS011;48683;48.084;17.272;2024-02-15T12:52:51;18.95;;;16.15;;
62610;SDS011;48683;48.084;17.272;2024-02-15T12:57:45;17.57;;;14.63;;
62610;SDS011;48683;48.084;17.272;2024-02-15T13:02:38;20.33;;;15.57;;
62610;SDS011;48683;48.084;17.272;2024-02-15T13:05:04;23.70;;;16.70;;
62610;SDS011;48683;48.084;17.272;2024-02-15T13:07:29;19.65;;;16.60;;
62610;SDS011;48683;48.084;17.272;2024-02-15T13:09:55;20.17;;;16.05;;
62610;SDS011;48683;48.084;17.272;2024-02-15T13:12:20;20.67;;;16.63;;
62610;SDS011;48683;48.084;17.272;2024-02-15T13:14:46;23.37;;;17.80;;
62610;SDS011;48683;48.084;17.272;2024-02-15T13:17:11;23.67;;;17.70;;
62610;SDS011;48683;48.084;17.272;2024-02-15T13:19:36;26.67;;;17.90;;
62610;SDS011;48683;48.084;17.272;2024-02-15T13:22:01;28.53;;;19.67;;
62610;SDS011;48683;48.084;17.272;2024-02-15T13:24:27;23.50;;;19.27;;
62610;SDS011;48683;48.084;17.272;2024-02-15T13:26:52;27.73;;;19.93;;
62610;SDS011;48683;48.084;17.272;2024-02-15T13:29:17;25.53;;;19.63;;
62610;SDS011;48683;48.084;17.272;2024-02-15T13:31:42;28.63;;;21.10;;
62610;SDS011;48683;48.084;17.272;2024-02-15T13:34:08;25.67;;;19.63;;
62610;SDS011;48683;48.084;17.272;2024-02-15T13:36:34;28.23;;;20.73;;
62610;SDS011;48683;48.084;17.272;2024-02-15T13:39:03;25.60;;;20.40;;
62610;SDS011;48683;48.084;17.272;2024-02-15T13:41:29;28.13;;;19.70;;
62610;SDS011;48683;48.084;17.272;2024-02-15T13:43:55;27.33;;;20.10;;
62610;SDS011;48683;48.084;17.272;2024-02-15T13:46:20;32.75;;;23.13;;
62610;SDS011;48683;48.084;17.272;2024-02-15T13:48:45;28.33;;;22.67;;
62610;SDS011;48683;48.084;17.272;2024-02-15T13:51:10;28.40;;;22.13;;
62610;SDS011;48683;48.084;17.272;2024-02-15T13:53:35;28.03;;;19.83;;
62610;SDS011;48683;48.084;17.272;2024-02-15T13:56:01;26.02;;;19.52;;
62610;SDS011;48683;48.084;17.272;2024-02-15T13:58:26;28.90;;;19.97;;
62610;SDS011;48683;48.084;17.272;2024-02-15T14:00:51;27.40;;;19.67;;
62610;SDS011;48683;48.084;17.272;2024-02-15T14:03:17;27.10;;;20.88;;
62610;SDS011;48683;48.084;17.272;2024-02-15T14:05:43;25.60;;;20.25;;
62610;SDS011;48683;48.084;17.272;2024-02-15T14:08:10;26.13;;;20.10;;
62610;SDS011;48683;48.084;17.272;2024-02-15T14:10:39;25.40;;;19.02;;
62610;SDS011;48683;48.084;17.272;2024-02-15T14:13:04;21.73;;;17.77;;
62610;SDS011;48683;48.084;17.272;2024-02-15T14:15:34;25.00;;;18.23;;
62610;SDS011;48683;48.084;17.272;2024-02-15T14:18:02;21.10;;;16.38;;
62610;SDS011;48683;48.084;17.272;2024-02-15T14:20:27;22.90;;;16.25;;
62610;SDS011;48683;48.084;17.272;2024-02-15T14:22:53;21.40;;;16.13;;
62610;SDS011;48683;48.084;17.272;2024-02-15T14:25:21;21.98;;;16.55;;
62610;SDS011;48683;48.084;17.272;2024-02-15T14:27:46;23.85;;;16.30;;
62610;SDS011;48683;48.084;17.272;2024-02-15T14:30:12;22.67;;;17.08;;